Time;durP1;ratioP1;P1;durP2;ratioP2;P2;SDS_P1;SDS_P2;PMS_P1;PMS_P2;Temp;Humidity;BMP_temperature;BMP_pressure;BME280_temperature;BME280_humidity;BME280_pressure;Samples;Min_cycle;Max_cycle;Signal;HPM_P1;HPM_P2
2023/12/02 00:01:14;;;;;;;26.00;14.38;;;-0.90;99.90;;;;;;4878767;28;93766;-33
2023/12/02 00:03:40;;;;;;;21.27;12.82;;;-1.00;99.90;;;;;;4868283;28;94274;-31
2023/12/02 00:06:05;;;;;;;32.13;17.77;;;-1.00;99.90;;;;;;4866411;28;94761;-34
2023/12/02 00:08:31;;;;;;;20.42;14.73;;;-1.00;99.90;;;;;;4860488;28;94759;-34
2023/12/02 00:10:57;;;;;;;21.52;13.23;;;-1.00;99.90;;;;;;4855678;28;92973;-32
2023/12/02 00:13:24;;;;;;;22.00;12.27;;;-1.00;99.90;;;;;;4861829;28;93878;-34
2023/12/02 00:15:50;;;;;;;28.02;16.52;;;-1.00;99.90;;;;;;4861264;28;95168;-30
2023/12/02 00:18:15;;;;;;;28.63;15.43;;;-1.00;99.90;;;;;;4862502;28;94793;-34
2023/12/02 00:20:41;;;;;;;23.13;13.20;;;-1.10;99.90;;;;;;4862160;28;94883;-31
2023/12/02 00:23:06;;;;;;;27.40;13.88;;;-1.00;99.90;;;;;;4869393;28;94454;-32
2023/12/02 00:25:32;;;;;;;22.33;11.48;;;-1.00;99.90;;;;;;4878149;28;95038;-32
2023/12/02 00:27:58;;;;;;;22.42;13.48;;;-1.00;99.90;;;;;;4869837;28;94729;-30
2023/12/02 00:30:23;;;;;;;30.63;16.13;;;-1.10;99.90;;;;;;4880155;28;92294;-31
2023/12/02 00:32:49;;;;;;;29.73;15.98;;;-1.10;99.90;;;;;;4879099;28;94402;-31
2023/12/02 00:35:15;;;;;;;26.13;15.70;;;-1.10;99.90;;;;;;4879418;28;95885;-34
2023/12/02 00:37:41;;;;;;;21.42;13.40;;;-1.10;99.90;;;;;;4879713;28;94225;-32
2023/12/02 00:40:08;;;;;;;26.85;14.13;;;-1.20;99.90;;;;;;4879533;28;92329;-34
2023/12/02 00:42:34;;;;;;;19.33;12.65;;;-1.20;99.90;;;;;;4880170;28;93303;-33
2023/12/02 00:45:00;;;;;;;25.95;15.70;;;-1.20;99.90;;;;;;4878203;28;95872;-31
2023/12/02 00:47:25;;;;;;;22.48;13.25;;;-1.20;99.90;;;;;;4879847;28;94922;-35
2023/12/02 00:49:51;;;;;;;25.15;15.52;;;-1.20;99.90;;;;;;4879476;28;94738;-33
2023/12/02 00:52:16;;;;;;;21.52;14.23;;;-1.20;99.90;;;;;;4871776;28;94556;-35
2023/12/02 00:54:42;;;;;;;24.52;13.35;;;-1.20;99.90;;;;;;4873638;28;95439;-32
2023/12/02 00:57:08;;;;;;;20.10;12.35;;;-1.30;99.90;;;;;;4878932;28;94752;-31
2023/12/02 00:59:33;;;;;;;25.83;14.32;;;-1.30;99.90;;;;;;4866520;28;92197;-31
2023/12/02 01:01:59;;;;;;;25.02;15.18;;;-1.40;99.90;;;;;;4868219;28;93830;-30
2023/12/02 01:04:25;;;;;;;30.30;15.23;;;-1.40;99.90;;;;;;4866106;28;94821;-34
2023/12/02 01:06:51;;;;;;;29.20;14.48;;;-1.40;99.90;;;;;;4860961;28;96661;-31
2023/12/02 01:09:16;;;;;;;24.67;14.07;;;-1.40;99.90;;;;;;4860021;28;97128;-31
2023/12/02 01:11:42;;;;;;;24.67;15.35;;;-1.50;99.90;;;;;;4861125;28;93079;-34
2023/12/02 01:14:07;;;;;;;23.08;13.48;;;-1.50;99.90;;;;;;4860057;28;94833;-34
2023/12/02 01:16:33;;;;;;;26.42;14.75;;;-1.50;99.90;;;;;;4861134;28;94536;-31
2023/12/02 01:18:59;;;;;;;30.20;15.07;;;-1.50;99.90;;;;;;4874012;28;94814;-32
2023/12/02 01:21:24;;;;;;;21.30;15.13;;;-1.50;99.90;;;;;;4878816;28;92492;-31
2023/12/02 01:23:50;;;;;;;24.60;15.07;;;-1.50;99.90;;;;;;4859466;28;95723;-33
2023/12/02 01:26:15;;;;;;;21.75;14.13;;;-1.50;99.90;;;;;;4860727;28;94641;-32
2023/12/02 01:28:41;;;;;;;24.70;13.52;;;-1.50;99.90;;;;;;4875978;28;94392;-31
2023/12/02 01:31:07;;;;;;;29.52;15.68;;;-1.50;99.90;;;;;;4878195;28;92154;-34
2023/12/02 01:33:33;;;;;;;29.85;17.10;;;-1.50;99.90;;;;;;4879197;28;95578;-32
2023/12/02 01:35:58;;;;;;;31.13;16.25;;;-1.50;99.90;;;;;;4877573;28;95233;-31
2023/12/02 01:38:24;;;;;;;28.48;14.02;;;-1.50;99.90;;;;;;4879865;28;92343;-31
2023/12/02 01:40:49;;;;;;;29.25;16.77;;;-1.60;99.90;;;;;;4871700;28;93954;-31
2023/12/02 01:43:27;;;;;;;36.90;14.15;;;-1.60;99.90;;;;;;4859201;28;95173;-32
2023/12/02 01:45:54;;;;;;;21.73;14.10;;;-1.60;99.90;;;;;;4860009;28;94805;-30
2023/12/02 01:48:23;;;;;;;27.13;14.07;;;-1.50;99.90;;;;;;4873044;28;92258;-33
2023/12/02 01:50:49;;;;;;;24.40;12.75;;;-1.60;99.90;;;;;;4861001;28;91503;-31
2023/12/02 01:53:15;;;;;;;26.73;15.20;;;-1.60;99.90;;;;;;4859690;28;95127;-31
2023/12/02 01:55:41;;;;;;;21.58;14.00;;;-1.60;99.90;;;;;;4859998;28;95271;-34
2023/12/02 01:58:07;;;;;;;29.60;17.63;;;-1.60;99.90;;;;;;4859244;28;94963;-32
2023/12/02 02:00:32;;;;;;;24.77;14.30;;;-1.60;99.90;;;;;;4859981;28;94661;-33
2023/12/02 02:02:58;;;;;;;29.10;15.65;;;-1.60;99.90;;;;;;4861614;28;95414;-32
2023/12/02 02:05:23;;;;;;;25.60;15.98;;;-1.60;99.90;;;;;;4869681;28;93662;-31
2023/12/02 02:07:49;;;;;;;31.73;17.63;;;-1.60;99.90;;;;;;4862560;28;94687;-34
2023/12/02 02:10:15;;;;;;;27.27;14.38;;;-1.60;99.90;;;;;;4877732;28;93053;-31
2023/12/02 02:12:40;;;;;;;25.83;12.93;;;-1.60;99.90;;;;;;4863032;28;95150;-35
2023/12/02 02:15:06;;;;;;;28.17;13.52;;;-1.60;99.90;;;;;;4869253;28;94675;-33
2023/12/02 02:17:32;;;;;;;27.17;13.50;;;-1.60;99.90;;;;;;4865513;28;93354;-31
2023/12/02 02:19:58;;;;;;;25.70;14.00;;;-1.60;99.90;;;;;;4868403;28;92184;-32
2023/12/02 02:22:23;;;;;;;27.83;17.60;;;-1.60;99.90;;;;;;4874018;28;95709;-31
2023/12/02 02:24:49;;;;;;;26.73;15.90;;;-1.60;99.90;;;;;;4892590;28;95433;-30
2023/12/02 02:27:14;;;;;;;24.50;13.50;;;-1.60;99.90;;;;;;4876423;28;92854;-33
2023/12/02 02:29:40;;;;;;;27.67;17.17;;;-1.60;99.90;;;;;;4859084;28;93447;-31
2023/12/02 02:32:06;;;;;;;24.67;15.90;;;-1.60;99.90;;;;;;4858337;28;95239;-32
2023/12/02 02:34:32;;;;;;;26.20;15.35;;;-1.60;99.90;;;;;;4858965;28;96075;-30
2023/12/02 02:36:58;;;;;;;23.35;15.07;;;-1.60;99.90;;;;;;4872356;28;93341;-33
2023/12/02 02:39:23;;;;;;;27.30;13.13;;;-1.60;99.90;;;;;;4878272;28;92076;-33
2023/12/02 02:41:49;;;;;;;30.27;15.50;;;-1.60;99.90;;;;;;4877414;28;94625;-32
2023/12/02 02:44:15;;;;;;;31.38;16.17;;;-1.60;99.90;;;;;;4877013;28;96435;-30
2023/12/02 02:46:40;;;;;;;25.00;15.35;;;-1.60;99.90;;;;;;4876572;28;95745;-31
2023/12/02 02:49:06;;;;;;;31.83;17.83;;;-1.60;99.90;;;;;;4876669;28;93000;-34
2023/12/02 02:51:32;;;;;;;30.02;16.50;;;-1.60;99.90;;;;;;4876846;28;95006;-34
2023/12/02 02:53:58;;;;;;;29.25;18.48;;;-1.60;99.90;;;;;;4877413;28;94604;-33
2023/12/02 02:56:23;;;;;;;23.35;14.52;;;-1.60;99.90;;;;;;4876581;28;95118;-30
2023/12/02 02:58:49;;;;;;;29.85;15.57;;;-1.60;99.90;;;;;;4876139;28;94460;-35
2023/12/02 03:01:15;;;;;;;23.33;13.95;;;-1.60;99.90;;;;;;4876226;28;94365;-30
2023/12/02 03:03:40;;;;;;;26.17;13.90;;;-1.60;99.90;;;;;;4876872;28;94010;-31
2023/12/02 03:06:07;;;;;;;33.38;14.43;;;-1.60;99.90;;;;;;4876460;28;95108;-31
2023/12/02 03:08:32;;;;;;;24.92;15.77;;;-1.60;99.90;;;;;;4877913;28;93202;-31
2023/12/02 03:10:58;;;;;;;26.27;15.27;;;-1.60;99.90;;;;;;4874709;28;95863;-31
2023/12/02 03:13:23;;;;;;;28.35;14.55;;;-1.60;99.90;;;;;;4877348;28;94487;-31
2023/12/02 03:15:49;;;;;;;29.65;16.30;;;-1.60;99.90;;;;;;4871181;28;93772;-32
2023/12/02 03:18:14;;;;;;;25.13;15.63;;;-1.60;99.90;;;;;;4877322;28;92637;-33
2023/12/02 03:20:40;;;;;;;25.95;14.38;;;-1.60;99.90;;;;;;4876131;28;95149;-32
2023/12/02 03:23:06;;;;;;;25.25;16.98;;;-1.60;99.90;;;;;;4876821;28;94661;-30
2023/12/02 03:25:31;;;;;;;28.30;15.77;;;-1.60;99.90;;;;;;4876091;28;93987;-31
2023/12/02 03:27:57;;;;;;;35.08;20.52;;;-1.60;99.90;;;;;;4876947;28;92274;-32
2023/12/02 03:30:22;;;;;;;31.27;14.10;;;-1.60;99.90;;;;;;4865261;28;96064;-33
2023/12/02 03:32:48;;;;;;;21.17;15.25;;;-1.60;99.90;;;;;;4870677;28;95073;-32
2023/12/02 03:35:14;;;;;;;25.27;15.15;;;-1.60;99.90;;;;;;4858506;28;95344;-34
2023/12/02 03:37:41;;;;;;;28.80;16.52;;;-1.50;99.90;;;;;;4871742;28;94759;-31
2023/12/02 03:40:08;;;;;;;23.17;13.10;;;-1.50;99.90;;;;;;4858101;28;94998;-35
2023/12/02 03:42:34;;;;;;;24.42;15.00;;;-1.50;99.90;;;;;;4859081;28;94408;-32
2023/12/02 03:45:00;;;;;;;39.30;16.30;;;-1.50;99.90;;;;;;4858895;28;95046;-30
2023/12/02 03:47:25;;;;;;;27.42;15.38;;;-1.50;99.90;;;;;;4865182;28;94192;-33
2023/12/02 03:49:51;;;;;;;30.48;14.20;;;-1.50;99.90;;;;;;4875914;28;95567;-32
2023/12/02 03:52:16;;;;;;;31.02;15.05;;;-1.50;99.90;;;;;;4876506;28;94578;-34
2023/12/02 03:54:42;;;;;;;18.85;12.48;;;-1.50;99.90;;;;;;4877699;28;94299;-33
2023/12/02 03:57:08;;;;;;;20.27;13.48;;;-1.50;99.90;;;;;;4877132;28;94286;-32
2023/12/02 03:59:33;;;;;;;26.80;16.50;;;-1.50;99.90;;;;;;4872567;28;95805;-31
2023/12/02 04:01:59;;;;;;;25.88;15.68;;;-1.50;99.90;;;;;;4876053;28;95625;-32
2023/12/02 04:04:24;;;;;;;30.95;15.63;;;-1.50;99.90;;;;;;4878802;28;94984;-34
2023/12/02 04:06:50;;;;;;;29.88;16.63;;;-1.50;99.90;;;;;;4881179;28;94812;-35
2023/12/02 04:09:16;;;;;;;28.58;15.90;;;-1.50;99.90;;;;;;4878510;28;95355;-34
2023/12/02 04:11:46;;;;;;;27.60;14.88;;;-1.50;99.90;;;;;;4880946;28;94686;-32
2023/12/02 04:14:12;;;;;;;24.90;16.38;;;-1.40;99.90;;;;;;4865716;28;93436;-34
2023/12/02 04:16:41;;;;;;;29.50;15.13;;;-1.40;99.90;;;;;;4861997;28;92986;-32
2023/12/02 04:19:09;;;;;;;30.55;15.40;;;-1.40;99.90;;;;;;4875520;28;95206;-31
2023/12/02 04:21:41;;;;;;;31.25;16.02;;;-1.40;99.90;;;;;;4871104;28;94194;-32
2023/12/02 04:24:07;;;;;;;27.17;17.67;;;-1.40;99.90;;;;;;4855166;28;95805;-32
2023/12/02 04:26:33;;;;;;;28.50;14.27;;;-1.40;99.90;;;;;;4861054;28;92719;-32
2023/12/02 04:28:58;;;;;;;26.15;15.30;;;-1.40;99.90;;;;;;4877444;28;95423;-32
2023/12/02 04:31:24;;;;;;;29.77;19.15;;;-1.40;99.90;;;;;;4872084;28;94574;-32
2023/12/02 04:33:49;;;;;;;24.85;16.45;;;-1.40;99.90;;;;;;4862100;28;93475;-33
2023/12/02 04:36:15;;;;;;;28.30;15.77;;;-1.50;99.90;;;;;;4875842;28;92259;-34
2023/12/02 04:38:41;;;;;;;29.02;15.75;;;-1.40;99.90;;;;;;4873380;28;94423;-32
2023/12/02 04:41:07;;;;;;;24.95;15.70;;;-1.40;99.90;;;;;;4869034;28;95087;-31
2023/12/02 04:43:33;;;;;;;24.05;14.15;;;-1.40;99.90;;;;;;4880041;28;94284;-34
2023/12/02 04:45:58;;;;;;;26.08;15.13;;;-1.50;99.90;;;;;;4879792;28;93059;-33
2023/12/02 04:48:24;;;;;;;29.40;16.83;;;-1.50;99.90;;;;;;4877129;28;95838;-30
2023/12/02 04:50:49;;;;;;;26.40;15.57;;;-1.50;99.90;;;;;;4869340;28;95908;-32
2023/12/02 04:53:16;;;;;;;24.80;14.15;;;-1.50;99.90;;;;;;4878767;28;94686;-32
2023/12/02 04:55:41;;;;;;;28.10;15.55;;;-1.40;99.90;;;;;;4880002;28;93454;-30
2023/12/02 04:58:07;;;;;;;29.13;15.23;;;-1.40;99.90;;;;;;4878817;28;95201;-31
2023/12/02 05:00:32;;;;;;;40.17;17.92;;;-1.50;99.90;;;;;;4878928;28;94671;-32
2023/12/02 05:02:58;;;;;;;27.95;16.42;;;-1.40;99.90;;;;;;4878437;28;93243;-33
2023/12/02 05:05:24;;;;;;;35.17;15.68;;;-1.40;99.90;;;;;;4880173;28;92355;-34
2023/12/02 05:07:49;;;;;;;22.42;12.90;;;-1.40;99.90;;;;;;4879340;28;95119;-34
2023/12/02 05:10:15;;;;;;;29.63;15.35;;;-1.40;99.90;;;;;;4879255;28;96831;-32
2023/12/02 05:12:40;;;;;;;27.63;16.58;;;-1.40;99.90;;;;;;4878718;28;94823;-31
2023/12/02 05:15:09;;;;;;;35.20;18.73;;;-1.40;99.90;;;;;;4877151;28;92831;-32
2023/12/02 05:17:34;;;;;;;30.38;15.80;;;-1.40;99.90;;;;;;4878188;28;96110;-33
2023/12/02 05:20:00;;;;;;;32.95;18.75;;;-1.40;99.90;;;;;;4878858;28;94688;-31
2023/12/02 05:22:26;;;;;;;24.75;13.60;;;-1.40;99.90;;;;;;4878959;28;92838;-33
2023/12/02 05:24:51;;;;;;;31.25;16.73;;;-1.30;99.90;;;;;;4878835;28;92167;-30
2023/12/02 05:27:17;;;;;;;23.35;13.93;;;-1.40;99.90;;;;;;4878274;28;94887;-31
2023/12/02 05:29:43;;;;;;;25.98;16.42;;;-1.40;99.90;;;;;;4872129;28;94640;-30
2023/12/02 05:32:08;;;;;;;27.25;15.45;;;-1.40;99.90;;;;;;4860624;28;92776;-32
2023/12/02 05:34:34;;;;;;;27.98;15.75;;;-1.40;99.90;;;;;;4859957;28;93749;-34
2023/12/02 05:36:59;;;;;;;25.65;14.07;;;-1.40;99.90;;;;;;4858693;28;95335;-31
2023/12/02 05:39:25;;;;;;;19.35;13.40;;;-1.30;99.90;;;;;;4860586;28;95810;-31
2023/12/02 05:41:51;;;;;;;29.80;16.27;;;-1.30;99.90;;;;;;4871950;28;92103;-30
2023/12/02 05:44:16;;;;;;;28.42;16.58;;;-1.30;99.90;;;;;;4867304;28;94951;-31
2023/12/02 05:46:42;;;;;;;25.90;15.45;;;-1.30;99.90;;;;;;4864574;28;94664;-33
2023/12/02 05:49:08;;;;;;;33.83;15.93;;;-1.30;99.90;;;;;;4866360;28;96280;-34
2023/12/02 05:51:38;;;;;;;33.13;16.15;;;-1.30;99.90;;;;;;4878929;28;94019;-31
2023/12/02 05:54:06;;;;;;;27.30;14.70;;;-1.30;99.90;;;;;;4879253;28;92353;-32
2023/12/02 05:56:32;;;;;;;33.05;16.38;;;-1.30;99.90;;;;;;4878375;28;95525;-31
2023/12/02 05:58:57;;;;;;;30.15;15.93;;;-1.30;99.90;;;;;;4872864;28;95048;-32
2023/12/02 06:01:23;;;;;;;20.00;14.63;;;-1.30;99.90;;;;;;4877908;28;94991;-30
2023/12/02 06:03:52;;;;;;;31.77;15.60;;;-1.30;99.90;;;;;;4877028;28;93196;-32
2023/12/02 06:06:18;;;;;;;27.30;15.45;;;-1.30;99.90;;;;;;4877499;28;95270;-35
2023/12/02 06:08:43;;;;;;;28.23;16.23;;;-1.30;99.90;;;;;;4878667;28;94357;-30
2023/12/02 06:11:09;;;;;;;28.45;17.35;;;-1.20;99.90;;;;;;4877342;28;92309;-31
2023/12/02 06:13:35;;;;;;;28.38;13.82;;;-1.20;99.90;;;;;;4878429;28;93493;-34
2023/12/02 06:16:00;;;;;;;22.08;14.02;;;-1.30;99.90;;;;;;4877236;28;94785;-34
2023/12/02 06:18:26;;;;;;;20.98;14.30;;;-1.30;99.90;;;;;;4879000;28;94543;-33
2023/12/02 06:20:52;;;;;;;27.15;16.38;;;-1.30;99.90;;;;;;4878127;28;93264;-32
2023/12/02 06:23:17;;;;;;;26.33;16.13;;;-1.20;99.90;;;;;;4868171;28;93854;-33
2023/12/02 06:25:43;;;;;;;26.08;15.77;;;-1.30;99.90;;;;;;4873080;28;95776;-33
2023/12/02 06:28:09;;;;;;;30.00;15.35;;;-1.30;99.90;;;;;;4868613;28;94790;-32
2023/12/02 06:30:35;;;;;;;24.83;13.35;;;-1.30;99.90;;;;;;4865847;28;92449;-32
2023/12/02 06:33:00;;;;;;;24.30;15.38;;;-1.20;99.90;;;;;;4878244;28;94193;-32
2023/12/02 06:35:26;;;;;;;31.15;17.38;;;-1.20;99.90;;;;;;4876705;28;94684;-34
2023/12/02 06:37:51;;;;;;;30.10;17.73;;;-1.20;99.90;;;;;;4876985;28;93890;-30
2023/12/02 06:40:17;;;;;;;26.25;15.35;;;-1.20;99.90;;;;;;4876739;28;92829;-32
2023/12/02 06:42:43;;;;;;;24.63;16.70;;;-1.20;99.90;;;;;;4879016;28;94293;-32
2023/12/02 06:45:09;;;;;;;26.67;14.35;;;-1.20;99.90;;;;;;4876420;28;94839;-31
2023/12/02 06:47:36;;;;;;;31.83;16.20;;;-1.20;99.90;;;;;;4877916;28;94701;-32
2023/12/02 06:50:03;;;;;;;32.30;14.60;;;-1.20;99.90;;;;;;4871317;28;95571;-31
2023/12/02 06:52:29;;;;;;;23.27;14.93;;;-1.20;99.90;;;;;;4871072;28;93300;-31
2023/12/02 06:54:54;;;;;;;28.42;16.55;;;-1.20;99.90;;;;;;4857932;28;95723;-32
2023/12/02 06:57:20;;;;;;;27.38;15.95;;;-1.20;99.90;;;;;;4859481;28;94553;-31
2023/12/02 06:59:46;;;;;;;27.80;15.98;;;-1.20;99.90;;;;;;4873045;28;93027;-33
2023/12/02 07:02:12;;;;;;;24.52;14.63;;;-1.20;99.90;;;;;;4859300;28;95074;-32
2023/12/02 07:04:38;;;;;;;33.58;16.05;;;-1.20;99.90;;;;;;4877293;28;94813;-34
2023/12/02 07:07:03;;;;;;;28.70;16.23;;;-1.20;99.90;;;;;;4864652;28;94563;-32
2023/12/02 07:09:29;;;;;;;31.83;14.73;;;-1.20;99.90;;;;;;4865889;28;93931;-30
2023/12/02 07:11:55;;;;;;;25.25;14.52;;;-1.20;99.90;;;;;;4877319;28;93392;-31
2023/12/02 07:14:20;;;;;;;27.42;15.30;;;-1.20;99.90;;;;;;4877331;28;94348;-33
2023/12/02 07:16:46;;;;;;;26.88;17.80;;;-1.20;99.90;;;;;;4876707;28;95822;-33
2023/12/02 07:19:12;;;;;;;26.88;16.27;;;-1.20;99.90;;;;;;4868094;28;93484;-32
2023/12/02 07:21:37;;;;;;;26.98;15.27;;;-1.20;99.90;;;;;;4868833;28;92491;-31
2023/12/02 07:24:03;;;;;;;33.70;16.13;;;-1.20;99.90;;;;;;4877631;28;94879;-31
2023/12/02 07:26:29;;;;;;;28.90;16.65;;;-1.20;99.90;;;;;;4877645;28;94449;-32
2023/12/02 07:28:54;;;;;;;30.70;15.13;;;-1.20;99.90;;;;;;4867499;28;93501;-31
2023/12/02 07:31:20;;;;;;;30.90;15.95;;;-1.20;99.90;;;;;;4894865;23;93455;-31
2023/12/02 07:33:46;;;;;;;25.77;15.18;;;-1.20;99.90;;;;;;4857043;28;95240;-33
2023/12/02 07:36:12;;;;;;;24.75;15.80;;;-1.20;99.90;;;;;;4857213;28;93977;-34
2023/12/02 07:38:40;;;;;;;31.23;18.13;;;-1.20;99.90;;;;;;4860438;28;95153;-30
2023/12/02 07:41:07;;;;;;;32.63;20.92;;;-1.20;99.90;;;;;;4861731;28;93528;-33
2023/12/02 07:43:33;;;;;;;27.08;17.95;;;-1.20;99.90;;;;;;4860847;28;94767;-32
2023/12/02 07:45:58;;;;;;;25.92;14.32;;;-1.20;99.90;;;;;;4862252;28;94359;-32
2023/12/02 07:48:24;;;;;;;33.17;17.45;;;-1.20;99.90;;;;;;4861132;28;95073;-31
2023/12/02 07:50:49;;;;;;;27.77;15.98;;;-1.10;99.90;;;;;;4861925;28;92198;-33
2023/12/02 07:53:15;;;;;;;28.58;17.95;;;-1.20;99.90;;;;;;4860274;28;94769;-33
2023/12/02 07:55:41;;;;;;;27.75;14.55;;;-1.10;99.90;;;;;;4861748;28;94571;-30
2023/12/02 07:58:06;;;;;;;33.65;16.70;;;-1.10;99.90;;;;;;4861284;28;94289;-31
2023/12/02 08:00:32;;;;;;;32.83;17.58;;;-1.10;99.90;;;;;;4861821;28;93159;-32
2023/12/02 08:02:57;;;;;;;27.77;16.80;;;-1.10;99.90;;;;;;4856805;28;95115;-31
2023/12/02 08:05:23;;;;;;;29.13;15.32;;;-1.10;99.90;;;;;;4852915;28;95197;-31
2023/12/02 08:07:50;;;;;;;27.63;15.30;;;-1.10;99.90;;;;;;4861669;28;94164;-34
2023/12/02 08:10:16;;;;;;;38.28;17.38;;;-1.10;99.90;;;;;;4861990;28;94166;-31
2023/12/02 08:12:42;;;;;;;30.88;16.50;;;-1.10;99.90;;;;;;4859789;28;95281;-33
2023/12/02 08:15:08;;;;;;;32.42;17.55;;;-1.10;99.90;;;;;;4853692;28;94663;-31
2023/12/02 08:17:34;;;;;;;34.13;18.17;;;-1.10;99.90;;;;;;4851895;28;94719;-33
2023/12/02 08:20:01;;;;;;;30.85;15.73;;;-1.10;99.90;;;;;;4848424;28;94217;-34
2023/12/02 08:22:26;;;;;;;27.08;14.95;;;-1.00;99.90;;;;;;4859951;28;94732;-31
2023/12/02 08:24:52;;;;;;;29.23;15.23;;;-1.00;99.90;;;;;;4859923;28;95420;-31
2023/12/02 08:27:18;;;;;;;28.17;15.52;;;-1.00;99.90;;;;;;4859506;28;94685;-33
2023/12/02 08:29:44;;;;;;;29.90;17.05;;;-1.00;99.90;;;;;;4862900;28;92654;-31
2023/12/02 08:32:09;;;;;;;29.55;17.95;;;-1.00;99.90;;;;;;4860109;28;94823;-33
2023/12/02 08:34:35;;;;;;;27.33;15.70;;;-1.00;99.90;;;;;;4860838;28;94627;-32
2023/12/02 08:37:01;;;;;;;34.40;16.27;;;-1.00;99.90;;;;;;4856359;28;94213;-32
2023/12/02 08:39:26;;;;;;;32.05;16.80;;;-0.90;99.90;;;;;;4866816;28;94233;-30
2023/12/02 08:41:52;;;;;;;31.10;16.40;;;-0.90;99.90;;;;;;4855880;28;94926;-32
2023/12/02 08:44:18;;;;;;;37.30;19.23;;;-0.90;99.90;;;;;;4852453;28;94303;-33
2023/12/02 08:46:44;;;;;;;28.70;17.75;;;-0.90;99.90;;;;;;4858363;28;94818;-30
2023/12/02 08:49:09;;;;;;;33.45;18.58;;;-0.90;99.90;;;;;;4856860;28;93937;-33
2023/12/02 08:51:35;;;;;;;34.67;19.83;;;-0.90;99.90;;;;;;4857218;28;96258;-31
2023/12/02 08:54:01;;;;;;;26.35;15.70;;;-0.80;99.90;;;;;;4857600;28;95137;-33
2023/12/02 08:56:28;;;;;;;31.92;19.25;;;-0.80;99.90;;;;;;4858389;28;94927;-33
2023/12/02 08:58:54;;;;;;;32.17;18.27;;;-0.80;99.90;;;;;;4858922;28;93397;-32
2023/12/02 09:01:20;;;;;;;32.17;17.52;;;-0.80;99.90;;;;;;4857417;28;93840;-31
2023/12/02 09:03:46;;;;;;;36.20;18.73;;;-0.80;99.90;;;;;;4857955;28;94605;-29
2023/12/02 09:06:11;;;;;;;33.25;18.92;;;-0.70;99.90;;;;;;4857709;28;93222;-30
2023/12/02 09:08:37;;;;;;;34.65;18.17;;;-0.70;99.90;;;;;;4858844;28;92173;-32
2023/12/02 09:11:04;;;;;;;30.38;16.90;;;-0.70;99.90;;;;;;4857645;28;94406;-30
2023/12/02 09:13:32;;;;;;;32.70;18.45;;;-0.70;99.90;;;;;;4856878;28;96530;-33
2023/12/02 09:15:58;;;;;;;;;;;-0.70;99.90;;;;;;4850612;28;93867;-33
2023/12/02 09:18:34;;;;;;;27.65;17.08;;;-0.70;99.90;;;;;;4853554;28;93028;-36
2023/12/02 09:21:00;;;;;;;26.50;14.73;;;-0.70;99.90;;;;;;4855481;28;94976;-33
2023/12/02 09:23:27;;;;;;;26.23;16.40;;;-0.70;99.90;;;;;;4858204;28;94564;-31
2023/12/02 09:25:53;;;;;;;35.85;18.63;;;-0.60;99.90;;;;;;4858074;28;92313;-31
2023/12/02 09:28:26;;;;;;;37.03;19.25;;;-0.60;99.90;;;;;;4857770;28;92989;-33
2023/12/02 09:30:59;;;;;;;27.17;14.13;;;-0.60;99.90;;;;;;4857639;28;96485;-31
2023/12/02 09:33:26;;;;;;;29.27;16.40;;;-0.50;99.90;;;;;;4857439;28;94208;-32
2023/12/02 09:35:57;;;;;;;33.50;18.73;;;-0.50;99.90;;;;;;4858416;28;93936;-31
2023/12/02 09:38:24;;;;;;;29.55;14.98;;;-0.50;99.90;;;;;;4857483;28;94339;-30
2023/12/02 09:41:01;;;;;;;35.00;16.67;;;-0.50;99.90;;;;;;4856909;28;96153;-30
2023/12/02 09:43:37;;;;;;;28.80;18.08;;;-0.40;99.90;;;;;;4857473;28;95735;-32
2023/12/02 09:46:19;;;;;;;32.83;18.52;;;-0.40;99.90;;;;;;4855611;28;92244;-31
2023/12/02 09:49:16;;;;;;;37.55;21.42;;;-0.40;99.90;;;;;;4858084;28;94192;-30
2023/12/02 09:52:08;;;;;;;33.33;21.80;;;-0.30;99.90;;;;;;4857565;28;95132;-32
2023/12/02 09:55:05;;;;;;;33.47;19.58;;;-0.30;99.90;;;;;;4857276;28;94638;-32
2023/12/02 09:57:36;;;;;;;33.17;15.27;;;-0.20;99.90;;;;;;4858007;28;93213;-30
2023/12/02 10:00:16;;;;;;;30.95;16.88;;;-0.20;99.90;;;;;;4849507;28;93435;-30
2023/12/02 10:03:06;;;;;;;37.45;18.38;;;-0.20;99.90;;;;;;4856166;28;95000;-30
2023/12/02 10:05:54;;;;;;;29.73;17.60;;;-0.10;99.90;;;;;;4856524;28;94603;-29
2023/12/02 10:08:25;;;;;;;;;;;-0.10;99.90;;;;;;4829331;28;93958;-31
2023/12/02 10:10:53;;;;;;;32.97;17.08;;;0.00;99.90;;;;;;4855747;28;93282;-33
2023/12/02 10:13:31;;;;;;;25.92;15.27;;;0.00;99.90;;;;;;4856864;28;93283;-30
2023/12/02 10:16:00;;;;;;;35.30;16.38;;;0.10;99.90;;;;;;4856460;28;94536;-31
2023/12/02 10:18:31;;;;;;;32.92;18.73;;;0.10;99.90;;;;;;4851706;28;92194;-33
2023/12/02 10:21:01;;;;;;;35.00;19.00;;;0.20;99.90;;;;;;4849889;28;93228;-33
2023/12/02 10:23:45;;;;;;;34.30;19.45;;;0.20;99.90;;;;;;4838188;28;94366;-29
2023/12/02 10:26:29;;;;;;;28.70;19.15;;;0.30;99.90;;;;;;4851684;28;94905;-33
2023/12/02 10:29:06;;;;;;;28.13;17.92;;;0.30;99.90;;;;;;4853364;28;92669;-32
2023/12/02 10:31:35;;;;;;;27.80;15.13;;;0.40;99.90;;;;;;4856379;28;94494;-32
2023/12/02 10:34:28;;;;;;;38.17;18.48;;;0.40;99.90;;;;;;4855786;28;95722;-31
2023/12/02 10:36:57;;;;;;;28.15;15.20;;;0.50;99.90;;;;;;4856920;28;95384;-33
2023/12/02 10:39:39;;;;;;;29.90;15.35;;;0.50;99.90;;;;;;4845436;28;93397;-31
2023/12/02 10:42:05;;;;;;;28.08;17.05;;;0.60;99.90;;;;;;4843891;28;94959;-31
2023/12/02 10:44:33;;;;;;;29.17;15.82;;;0.70;99.90;;;;;;4856400;28;95532;-33
2023/12/02 10:46:59;;;;;;;36.75;18.55;;;0.70;99.90;;;;;;4856066;28;94366;-30
2023/12/02 10:49:28;;;;;;;26.65;16.08;;;0.80;99.90;;;;;;4857836;28;94913;-32
2023/12/02 10:51:55;;;;;;;33.67;17.27;;;0.80;99.90;;;;;;4856871;28;93938;-34
2023/12/02 10:54:26;;;;;;;34.42;19.83;;;0.80;99.90;;;;;;4850812;28;94548;-30
2023/12/02 10:57:10;;;;;;;36.17;17.40;;;0.80;99.90;;;;;;4844743;28;95747;-32
2023/12/02 10:59:52;;;;;;;34.40;18.88;;;0.90;99.90;;;;;;4842150;28;95566;-31
2023/12/02 11:02:34;;;;;;;26.23;15.43;;;0.90;99.90;;;;;;4841365;28;95194;-31
2023/12/02 11:05:10;;;;;;;31.13;17.30;;;0.80;99.90;;;;;;4846025;28;95159;-33
2023/12/02 11:07:39;;;;;;;27.52;15.15;;;0.90;99.90;;;;;;4847389;28;94304;-34
2023/12/02 11:10:09;;;;;;;29.67;17.08;;;1.00;99.90;;;;;;4842303;28;94288;-33
2023/12/02 11:12:40;;;;;;;31.88;17.73;;;1.00;99.90;;;;;;4841325;28;93511;-33
2023/12/02 11:15:11;;;;;;;30.58;18.23;;;1.00;99.90;;;;;;4850108;28;95204;-31
2023/12/02 11:17:42;;;;;;;31.63;16.25;;;1.00;99.90;;;;;;4859272;28;94978;-32
2023/12/02 11:20:18;;;;;;;32.10;18.60;;;1.00;99.90;;;;;;4851701;28;93270;-29
2023/12/02 11:23:13;;;;;;;26.38;15.80;;;1.10;99.90;;;;;;4853389;28;92576;-32
2023/12/02 11:25:53;;;;;;;32.08;19.02;;;1.10;99.90;;;;;;4849758;28;95889;-31
2023/12/02 11:28:25;;;;;;;25.08;17.17;;;1.10;99.90;;;;;;4858181;28;96261;-31
2023/12/02 11:31:12;;;;;;;27.98;16.65;;;1.10;99.90;;;;;;4853610;28;92351;-30
2023/12/02 11:33:40;;;;;;;34.65;18.80;;;1.10;99.90;;;;;;4840478;28;94079;-32
2023/12/02 11:36:36;;;;;;;28.80;17.65;;;1.20;99.90;;;;;;4849225;28;94694;-33
2023/12/02 11:39:22;;;;;;;29.92;20.10;;;1.20;99.90;;;;;;4852744;28;94645;-31
2023/12/02 11:41:55;;;;;;;32.78;18.63;;;1.20;99.90;;;;;;4852048;28;94030;-32
2023/12/02 11:44:46;;;;;;;32.33;16.40;;;1.30;99.90;;;;;;4841666;28;92087;-32
2023/12/02 11:47:12;;;;;;;26.85;16.85;;;1.30;99.90;;;;;;4852163;28;96348;-30
2023/12/02 11:49:50;;;;;;;27.35;16.00;;;1.40;99.90;;;;;;4840050;28;94771;-30
2023/12/02 11:53:06;;;;;;;30.97;17.33;;;1.40;99.90;;;;;;4841153;28;93846;-31
2023/12/02 11:55:43;;;;;;;30.65;17.40;;;1.40;99.90;;;;;;4839959;28;92241;-32
2023/12/02 11:58:46;;;;;;;32.65;18.05;;;1.30;99.90;;;;;;4841170;28;94495;-33
2023/12/02 12:01:29;;;;;;;30.27;17.25;;;1.40;99.90;;;;;;4841901;28;96259;-33
2023/12/02 12:04:22;;;;;;;36.33;17.02;;;1.40;99.90;;;;;;4841151;28;93323;-32
2023/12/02 12:07:23;;;;;;;27.75;15.48;;;1.40;99.90;;;;;;4842253;28;92998;-34
2023/12/02 12:10:01;;;;;;;28.80;16.50;;;1.40;99.90;;;;;;4840752;28;94685;-31
2023/12/02 12:12:30;;;;;;;29.60;17.23;;;1.30;99.90;;;;;;4842811;28;94405;-32
2023/12/02 12:15:00;;;;;;;30.80;18.25;;;1.30;99.90;;;;;;4841717;28;93234;-30
2023/12/02 12:17:26;;;;;;;29.35;18.80;;;1.40;99.90;;;;;;4842425;28;92133;-31
2023/12/02 12:19:52;;;;;;;33.28;19.25;;;1.40;99.90;;;;;;4840746;28;95684;-31
2023/12/02 12:22:18;;;;;;;33.33;17.33;;;1.40;99.90;;;;;;4841911;28;96064;-33
2023/12/02 12:24:43;;;;;;;38.20;17.60;;;1.40;99.90;;;;;;4840936;28;92681;-32
2023/12/02 12:27:10;;;;;;;28.88;17.75;;;1.40;99.90;;;;;;4853396;28;93806;-32
2023/12/02 12:29:53;;;;;;;26.50;15.40;;;1.50;99.90;;;;;;4859450;28;94123;-32
2023/12/02 12:32:19;;;;;;;28.00;17.63;;;1.50;99.90;;;;;;4858187;28;94985;-32
2023/12/02 12:34:45;;;;;;;26.05;17.88;;;1.50;99.90;;;;;;4859560;28;93522;-33